Time;durP1;ratioP1;P1;durP2;ratioP2;P2;SDS_P1;SDS_P2;PMS_P1;PMS_P2;Temp;Humidity;BMP_temperature;BMP_pressure;BME280_temperature;BME280_humidity;BME280_pressure;Samples;Min_cycle;Max_cycle;Signal;HPM_P1;HPM_P2
2023/10/21 00:01:48;;;;;;;7.43;5.65;;;;;;;12.22;100.00;98263.19;5013254;28;20241;-76
2023/10/21 00:04:14;;;;;;;6.68;5.97;;;;;;;12.22;100.00;98257.94;5015262;28;20034;-76
2023/10/21 00:06:40;;;;;;;8.15;6.05;;;;;;;12.22;100.00;98248.25;5015361;28;20125;-76
2023/10/21 00:09:06;;;;;;;7.85;6.13;;;;;;;12.22;100.00;98264.00;5016539;28;20109;-76
2023/10/21 00:11:31;;;;;;;7.53;6.22;;;;;;;12.20;100.00;98260.69;5015881;28;20030;-76
2023/10/21 00:13:57;;;;;;;7.32;6.63;;;;;;;12.20;100.00;98254.63;5014781;28;20379;-76
2023/10/21 00:16:23;;;;;;;8.23;6.18;;;;;;;12.19;100.00;98264.28;5015867;28;20036;-76
2023/10/21 00:18:48;;;;;;;8.02;6.90;;;;;;;12.19;100.00;98266.91;5015530;28;20057;-76
2023/10/21 00:21:14;;;;;;;9.90;6.72;;;;;;;12.16;100.00;98266.34;5015667;28;20021;-76
2023/10/21 00:23:39;;;;;;;7.85;6.20;;;;;;;12.16;100.00;98280.28;5015475;28;20355;-76
2023/10/21 00:26:04;;;;;;;7.13;6.30;;;;;;;12.16;100.00;98275.03;5016059;28;20044;-76
2023/10/21 00:28:30;;;;;;;9.90;6.65;;;;;;;12.16;100.00;98276.84;5015366;28;20281;-76
2023/10/21 00:30:55;;;;;;;9.30;6.65;;;;;;;12.16;100.00;98274.22;5016203;28;20096;-76
2023/10/21 00:33:20;;;;;;;9.73;7.00;;;;;;;12.15;100.00;98272.56;5015572;28;20109;-76
2023/10/21 00:35:46;;;;;;;7.47;6.00;;;;;;;12.16;100.00;98277.66;5012973;28;20037;-76
2023/10/21 00:38:12;;;;;;;11.10;6.68;;;;;;;12.15;100.00;98285.66;5007078;28;20061;-76
2023/10/21 00:40:37;;;;;;;9.60;6.32;;;;;;;12.14;100.00;98290.09;5015923;28;20029;-76
2023/10/21 00:43:03;;;;;;;12.15;5.63;;;;;;;12.16;100.00;98289.97;5015335;28;20034;-76
2023/10/21 00:45:28;;;;;;;7.10;5.60;;;;;;;12.17;100.00;98297.72;5016491;28;20040;-76
2023/10/21 00:47:54;;;;;;;8.68;6.50;;;;;;;12.18;100.00;98299.34;5016362;28;20285;-76
2023/10/21 00:50:20;;;;;;;6.28;5.68;;;;;;;12.18;100.00;98304.59;5016164;28;20202;-76
2023/10/21 00:52:48;;;;;;;7.65;5.65;;;;;;;12.18;100.00;98312.47;5015499;28;20045;-76
2023/10/21 00:55:14;;;;;;;;;;;;;;;12.18;100.00;98316.91;5016432;28;20041;-76
2023/10/21 00:57:40;;;;;;;8.57;6.50;;;;;;;12.18;100.00;98309.03;5015838;28;19915;-76
2023/10/21 01:00:10;;;;;;;7.15;5.22;;;;;;;12.17;100.00;98316.06;5016098;28;20288;-76
2023/10/21 01:02:41;;;;;;;8.13;5.95;;;;;;;12.19;100.00;98318.56;5015341;28;20091;-76
2023/10/21 01:05:08;;;;;;;11.30;5.72;;;;;;;12.18;100.00;98317.72;5016456;28;20037;-76
2023/10/21 01:07:34;;;;;;;6.20;4.85;;;;;;;12.20;100.00;98322.84;5015431;28;20102;-76
2023/10/21 01:10:05;;;;;;;7.53;5.63;;;;;;;12.21;100.00;98330.56;5015683;28;20053;-76
2023/10/21 01:12:31;;;;;;;6.13;5.50;;;;;;;12.21;100.00;98329.75;5015345;28;20384;-76
2023/10/21 01:14:57;;;;;;;6.75;5.55;;;;;;;12.21;100.00;98324.50;5015073;28;20310;-76
2023/10/21 01:17:22;;;;;;;5.32;4.82;;;;;;;12.20;100.00;98328.91;5015582;28;21236;-76
2023/10/21 01:19:48;;;;;;;5.75;5.25;;;;;;;12.20;100.00;98334.16;5015557;28;20386;-76
2023/10/21 01:22:14;;;;;;;6.07;5.47;;;;;;;12.19;100.00;98329.88;5016095;28;20056;-76
2023/10/21 01:24:39;;;;;;;6.30;5.70;;;;;;;12.18;100.00;98333.47;5014864;28;20042;-76
2023/10/21 01:27:05;;;;;;;7.38;5.88;;;;;;;12.19;100.00;98334.31;5015617;28;20038;-76
2023/10/21 01:29:30;;;;;;;9.88;6.22;;;;;;;12.17;100.00;98339.69;5015090;28;20033;-76
2023/10/21 01:31:55;;;;;;;7.38;6.40;;;;;;;12.17;100.00;98344.94;5015990;28;20041;-76
2023/10/21 01:34:21;;;;;;;9.65;7.07;;;;;;;12.17;100.00;98341.47;5013803;28;20033;-76
2023/10/21 01:36:47;;;;;;;7.88;6.90;;;;;;;12.16;100.00;98351.13;5015319;28;20128;-76
2023/10/21 01:39:13;;;;;;;7.45;6.53;;;;;;;12.16;100.00;98347.69;5014871;28;20468;-76
2023/10/21 01:41:38;;;;;;;6.93;6.28;;;;;;;12.16;100.00;98351.13;5013522;28;20233;-76
2023/10/21 01:44:04;;;;;;;7.03;6.32;;;;;;;12.17;100.00;98350.19;5003969;28;20337;-76
2023/10/21 01:46:29;;;;;;;7.00;6.38;;;;;;;12.17;100.00;98349.31;5003359;28;20053;-76
2023/10/21 01:48:54;;;;;;;8.18;6.00;;;;;;;12.16;100.00;98342.44;5015122;28;20029;-76
2023/10/21 01:51:20;;;;;;;8.57;6.20;;;;;;;12.17;100.00;98354.56;5015274;28;20041;-76
2023/10/21 01:53:45;;;;;;;6.78;5.43;;;;;;;12.16;100.00;98361.63;5014795;28;20056;-76
2023/10/21 01:56:10;;;;;;;7.30;6.57;;;;;;;12.16;100.00;98363.44;5014832;28;20033;-76
2023/10/21 01:58:36;;;;;;;7.13;6.43;;;;;;;12.13;100.00;98353.19;5013830;28;20059;-76
2023/10/21 02:01:09;;;;;;;6.68;6.07;;;;;;;12.14;100.00;98371.44;5014998;28;20097;-76
2023/10/21 02:03:35;;;;;;;6.47;5.88;;;;;;;12.14;100.00;98378.47;5014795;28;20037;-76
2023/10/21 02:06:05;;;;;;;7.63;6.13;;;;;;;12.13;100.00;98380.25;5015169;28;20041;-76
2023/10/21 02:08:30;;;;;;;7.25;6.55;;;;;;;12.14;100.00;98392.41;5014872;28;20271;-76
2023/10/21 02:10:56;;;;;;;6.88;6.25;;;;;;;12.13;100.00;98390.75;5014656;28;20340;-76
2023/10/21 02:13:21;;;;;;;8.27;6.57;;;;;;;12.14;100.00;98396.84;5014323;28;20364;-76
2023/10/21 02:15:46;;;;;;;7.30;6.30;;;;;;;12.12;100.00;98390.91;5014468;28;20332;-76
2023/10/21 02:18:12;;;;;;;7.70;6.75;;;;;;;12.12;100.00;98398.78;5015522;28;20038;-76
2023/10/21 02:20:37;;;;;;;7.43;6.70;;;;;;;12.12;100.00;98398.78;5014445;28;20068;-76
2023/10/21 02:23:03;;;;;;;9.52;7.35;;;;;;;12.10;100.00;98409.41;5015131;28;20076;-76
2023/10/21 02:25:29;;;;;;;7.80;6.68;;;;;;;12.10;100.00;98412.00;5013648;28;20060;-76
2023/10/21 02:27:54;;;;;;;7.20;6.53;;;;;;;12.10;100.00;98420.72;5015005;28;20037;-76
2023/10/21 02:30:20;;;;;;;11.60;7.07;;;;;;;12.09;100.00;98418.22;5014241;28;20038;-76
2023/10/21 02:32:47;;;;;;;11.38;7.22;;;;;;;12.09;100.00;98416.41;5014482;28;20037;-75
2023/10/21 02:35:13;;;;;;;9.60;7.15;;;;;;;12.12;100.00;98417.13;5014604;28;20426;-76
2023/10/21 02:37:38;;;;;;;7.65;6.85;;;;;;;12.11;100.00;98411.03;5014115;28;20327;-76
2023/10/21 02:40:04;;;;;;;8.60;6.80;;;;;;;12.10;100.00;98414.63;5014735;28;20228;-76
2023/10/21 02:42:29;;;;;;;7.97;6.78;;;;;;;12.11;100.00;98413.66;5013871;28;20403;-76
2023/10/21 02:44:54;;;;;;;9.27;7.18;;;;;;;12.10;100.00;98419.88;5014814;28;20296;-76
2023/10/21 02:47:20;;;;;;;10.05;6.90;;;;;;;12.09;100.00;98415.59;5014159;28;20312;-76
2023/10/21 02:49:46;;;;;;;7.28;6.50;;;;;;;12.11;100.00;98418.91;5014520;28;20099;-76
2023/10/21 02:52:11;;;;;;;6.93;6.22;;;;;;;12.12;100.00;98427.63;5014711;28;20037;-76
2023/10/21 02:54:36;;;;;;;6.88;6.10;;;;;;;12.12;100.00;98430.25;5014024;28;20076;-76
2023/10/21 02:57:02;;;;;;;9.77;7.22;;;;;;;12.09;100.00;98424.28;5014404;28;20045;-76
2023/10/21 02:59:27;;;;;;;6.28;5.68;;;;;;;12.10;100.00;98423.34;5012614;28;20033;-76
2023/10/21 03:01:53;;;;;;;13.98;7.07;;;;;;;12.08;100.00;98430.50;5013488;28;20034;-76
2023/10/21 03:04:18;;;;;;;11.52;7.22;;;;;;;12.07;100.00;98433.25;5014982;28;20105;-76
2023/10/21 03:06:43;;;;;;;6.97;6.25;;;;;;;12.06;100.00;98440.31;5014019;28;20085;-76
2023/10/21 03:09:09;;;;;;;7.47;6.20;;;;;;;12.07;100.00;98454.25;5014071;28;20125;-76
2023/10/21 03:11:34;;;;;;;6.78;5.70;;;;;;;12.06;100.00;98453.41;5013480;28;20257;-76
2023/10/21 03:14:00;;;;;;;6.65;5.57;;;;;;;12.07;100.00;98451.63;5013797;28;20058;-76
2023/10/21 03:16:25;;;;;;;5.70;5.07;;;;;;;12.05;100.00;98451.75;5013757;28;20068;-76
2023/10/21 03:18:51;;;;;;;7.65;5.28;;;;;;;12.05;100.00;98456.16;5014347;28;20045;-76
2023/10/21 03:21:17;;;;;;;8.82;5.70;;;;;;;12.04;100.00;98454.50;5018099;28;20057;-76
2023/10/21 03:23:42;;;;;;;6.78;6.03;;;;;;;12.04;100.00;98462.38;5017211;28;20268;-76
2023/10/21 03:26:07;;;;;;;7.95;6.40;;;;;;;12.03;100.00;98456.28;5017962;28;20079;-76
2023/10/21 03:28:34;;;;;;;7.90;6.40;;;;;;;12.01;100.00;98465.25;5017159;28;20079;-76
2023/10/21 03:31:01;;;;;;;7.18;5.43;;;;;;;12.03;100.00;98466.78;5017939;28;20030;-76
2023/10/21 03:33:28;;;;;;;5.88;5.35;;;;;;;12.06;100.00;98476.19;5017547;28;20046;-76
2023/10/21 03:36:04;;;;;;;6.05;5.50;;;;;;;12.05;100.00;98466.66;5016319;28;20088;-76
2023/10/21 03:38:30;;;;;;;6.00;5.50;;;;;;;12.03;100.00;98466.78;5016731;28;20069;-76
2023/10/21 03:41:02;;;;;;;8.20;5.38;;;;;;;12.03;100.00;98473.84;5017919;28;20352;-76
2023/10/21 03:43:27;;;;;;;7.18;5.45;;;;;;;12.02;100.00;98470.34;5016695;28;20091;-76
2023/10/21 03:45:54;;;;;;;6.43;5.07;;;;;;;12.01;100.00;98473.97;5017598;28;20101;-76
2023/10/21 03:48:20;;;;;;;9.00;5.40;;;;;;;12.00;100.00;98480.16;5017341;28;20292;-76
2023/10/21 03:50:46;;;;;;;5.88;5.13;;;;;;;12.01;100.00;98489.69;5017146;28;20084;-76
2023/10/21 03:53:13;;;;;;;8.02;6.35;;;;;;;11.99;100.00;98498.63;5017536;28;20045;-76
2023/10/21 03:55:39;;;;;;;6.68;5.50;;;;;;;11.97;100.00;98495.31;5014563;28;20072;-76
2023/10/21 03:58:04;;;;;;;8.30;5.95;;;;;;;11.95;100.00;98503.34;5017774;28;20038;-76
2023/10/21 04:00:29;;;;;;;8.27;5.88;;;;;;;11.97;100.00;98500.56;5016886;28;20014;-76
2023/10/21 04:02:55;;;;;;;8.48;6.25;;;;;;;11.95;100.00;98507.72;5017094;28;20033;-76
2023/10/21 04:05:20;;;;;;;7.38;5.60;;;;;;;11.94;100.00;98512.16;5017380;28;20117;-76
2023/10/21 04:07:46;;;;;;;8.32;5.55;;;;;;;11.93;100.00;98517.53;5016798;28;20046;-76
2023/10/21 04:10:11;;;;;;;13.18;5.82;;;;;;;11.90;100.00;98514.19;5017132;28;20279;-76
2023/10/21 04:12:39;;;;;;;7.63;5.40;;;;;;;11.94;100.00;98522.66;5016311;28;20349;-76
2023/10/21 04:15:07;;;;;;;6.65;5.20;;;;;;;11.94;100.00;98522.66;5017324;28;20328;-76
2023/10/21 04:17:32;;;;;;;6.53;4.80;;;;;;;11.93;100.00;98523.59;5016739;28;20239;-76
2023/10/21 04:19:57;;;;;;;5.80;4.75;;;;;;;11.92;100.00;98526.38;5017356;28;20121;-75
2023/10/21 04:22:23;;;;;;;6.47;4.88;;;;;;;11.93;100.00;98530.63;5016941;28;20049;-76
2023/10/21 04:24:48;;;;;;;15.90;5.78;;;;;;;11.90;100.00;98536.97;5016572;28;20379;-76
2023/10/21 04:27:13;;;;;;;6.68;4.30;;;;;;;11.91;100.00;98538.63;5016967;28;20399;-76
2023/10/21 04:29:39;;;;;;;11.75;5.03;;;;;;;11.89;100.00;98551.00;5016172;28;20049;-76
2023/10/21 04:32:05;;;;;;;6.82;4.30;;;;;;;11.90;100.00;98552.72;5016078;28;20168;-75
2023/10/21 04:34:30;;;;;;;6.30;4.22;;;;;;;11.93;100.00;98556.88;5016105;28;20064;-75
2023/10/21 04:36:56;;;;;;;13.18;5.35;;;;;;;11.95;100.00;98562.81;5016351;28;20068;-76
2023/10/21 04:39:21;;;;;;;9.98;5.57;;;;;;;11.96;100.00;98567.13;5014997;28;20070;-75
2023/10/21 04:41:49;;;;;;;11.52;5.60;;;;;;;11.97;100.00;98571.38;5009258;28;20384;-76
2023/10/21 04:44:14;;;;;;;7.47;5.55;;;;;;;11.98;100.00;98567.81;5017002;28;20305;-76
2023/10/21 04:46:40;;;;;;;14.38;6.22;;;;;;;12.00;100.00;98579.00;5016086;28;20034;-76
2023/10/21 04:49:05;;;;;;;10.70;5.50;;;;;;;12.00;100.00;98579.84;5016742;28;20038;-75
2023/10/21 04:51:31;;;;;;;7.80;5.90;;;;;;;12.03;100.00;98584.00;5016046;28;20363;-75
2023/10/21 04:53:57;;;;;;;11.10;5.97;;;;;;;12.03;100.00;98576.97;5016885;28;20534;-76
2023/10/21 04:56:24;;;;;;;14.57;6.53;;;;;;;12.04;100.00;98585.66;5016171;28;20040;-76
2023/10/21 04:58:50;;;;;;;10.15;5.90;;;;;;;12.06;100.00;98591.59;4998258;28;20030;-76
2023/10/21 05:01:16;;;;;;;15.52;6.72;;;;;;;12.04;100.00;98601.41;5016410;28;20428;-76
2023/10/21 05:03:43;;;;;;;12.70;6.90;;;;;;;12.05;100.00;98589.97;4997925;28;20042;-76
2023/10/21 05:06:08;;;;;;;15.43;6.60;;;;;;;12.05;100.00;98600.47;4996996;28;20038;-76
2023/10/21 05:08:33;;;;;;;14.38;6.68;;;;;;;12.06;100.00;98602.97;4996041;28;20065;-76
2023/10/21 05:10:59;;;;;;;14.98;7.07;;;;;;;12.05;100.00;98606.53;4995262;28;20341;-76
2023/10/21 05:13:24;;;;;;;12.32;6.68;;;;;;;12.07;100.00;98609.03;5000741;28;20228;-76
2023/10/21 05:15:50;;;;;;;10.32;5.28;;;;;;;12.09;100.00;98614.97;5015695;28;20037;-75
2023/10/21 05:18:16;;;;;;;8.90;5.40;;;;;;;12.11;100.00;98618.31;5016232;28;20029;-75
2023/10/21 05:20:42;;;;;;;10.68;5.63;;;;;;;12.11;100.00;98618.31;5015241;28;20085;-75
2023/10/21 05:23:08;;;;;;;7.45;5.40;;;;;;;12.14;100.00;98620.69;5014985;28;20057;-76
2023/10/21 05:25:33;;;;;;;8.38;5.00;;;;;;;12.15;100.00;98626.75;5014865;28;20363;-75
2023/10/21 05:27:59;;;;;;;5.82;4.72;;;;;;;12.17;100.00;98630.09;5016130;28;20057;-75
2023/10/21 05:30:24;;;;;;;5.10;4.70;;;;;;;12.18;100.00;98637.84;5014834;28;20251;-76
2023/10/21 05:32:49;;;;;;;5.28;4.65;;;;;;;12.19;100.00;98630.81;5015206;28;20037;-75
2023/10/21 05:35:16;;;;;;;5.43;5.03;;;;;;;12.19;100.00;98630.81;5015319;28;20064;-75
2023/10/21 05:37:41;;;;;;;7.00;5.25;;;;;;;12.19;100.00;98630.81;5014784;28;20029;-76
2023/10/21 05:40:07;;;;;;;5.50;4.40;;;;;;;12.17;100.00;98637.94;5014865;28;20056;-75
2023/10/21 05:42:33;;;;;;;12.18;5.80;;;;;;;12.13;100.00;98644.41;5011236;28;20041;-76
2023/10/21 05:44:59;;;;;;;15.95;6.10;;;;;;;12.11;100.00;98655.03;5014552;28;20210;-76
2023/10/21 05:47:26;;;;;;;8.63;5.32;;;;;;;12.13;100.00;98653.13;5014049;28;20039;-76
2023/10/21 05:49:52;;;;;;;5.95;5.35;;;;;;;12.12;100.00;98642.78;5015001;28;20459;-76
2023/10/21 05:52:17;;;;;;;7.13;5.20;;;;;;;12.14;100.00;98654.78;5014577;28;20033;-76
2023/10/21 05:54:43;;;;;;;7.90;5.38;;;;;;;12.14;100.00;98660.03;5014215;28;20356;-75
2023/10/21 05:57:08;;;;;;;6.35;5.30;;;;;;;12.14;100.00;98665.28;5013153;28;20048;-76
2023/10/21 05:59:34;;;;;;;10.13;5.75;;;;;;;12.15;100.00;98666.13;5013600;28;20025;-76
2023/10/21 06:01:59;;;;;;;5.45;4.95;;;;;;;12.16;100.00;98675.66;5015048;28;20033;-76
2023/10/21 06:04:25;;;;;;;8.48;6.15;;;;;;;12.14;100.00;98682.84;5014279;28;20037;-75
2023/10/21 06:06:54;;;;;;;6.38;5.65;;;;;;;12.16;100.00;98689.59;5014666;28;20038;-75
2023/10/21 06:09:23;;;;;;;6.03;5.30;;;;;;;12.17;100.00;98693.91;5014771;28;20041;-76
2023/10/21 06:11:49;;;;;;;9.82;6.10;;;;;;;12.18;100.00;98694.75;5014617;28;20017;-75
2023/10/21 06:14:14;;;;;;;7.07;5.30;;;;;;;12.18;100.00;98703.44;5014755;28;20045;-76
2023/10/21 06:16:40;;;;;;;5.07;4.60;;;;;;;12.20;100.00;98698.06;5014085;28;20444;-76
2023/10/21 06:19:05;;;;;;;5.25;4.60;;;;;;;12.21;100.00;98703.19;5014628;28;20356;-76
2023/10/21 06:21:30;;;;;;;7.05;5.50;;;;;;;12.22;100.00;98712.72;5013773;28;20340;-76
2023/10/21 06:23:56;;;;;;;5.95;5.00;;;;;;;12.22;100.00;98714.50;5014359;28;20068;-76
2023/10/21 06:26:21;;;;;;;7.45;5.32;;;;;;;12.22;100.00;98722.38;5011210;28;20261;-76
2023/10/21 06:28:46;;;;;;;5.50;4.90;;;;;;;12.23;100.00;98724.06;5014473;28;20038;-76
2023/10/21 06:31:12;;;;;;;8.38;5.00;;;;;;;12.24;100.00;98721.31;5005462;28;20233;-75
2023/10/21 06:33:37;;;;;;;9.45;5.40;;;;;;;12.23;100.00;98727.50;5013842;28;20034;-76
2023/10/21 06:36:03;;;;;;;11.25;5.70;;;;;;;12.23;100.00;98726.69;5014941;28;20352;-76
2023/10/21 06:38:29;;;;;;;7.68;5.47;;;;;;;12.24;100.00;98738.84;5009164;28;20560;-76
2023/10/21 06:40:56;;;;;;;5.68;5.18;;;;;;;12.24;100.00;98750.19;5012932;28;20189;-75
2023/10/21 06:43:22;;;;;;;6.43;4.35;;;;;;;12.27;100.00;98751.72;5013679;28;20045;-76
2023/10/21 06:45:48;;;;;;;5.68;4.57;;;;;;;12.27;100.00;98759.59;5014497;28;20129;-76
2023/10/21 06:48:13;;;;;;;5.78;4.57;;;;;;;12.28;100.00;98761.28;5014333;28;20038;-76
2023/10/21 06:50:40;;;;;;;8.80;5.57;;;;;;;12.27;100.00;98764.84;5014394;28;20073;-76
2023/10/21 06:53:06;;;;;;;9.07;5.20;;;;;;;12.28;100.00;98777.03;5013923;28;20033;-76
2023/10/21 06:55:44;;;;;;;12.05;5.65;;;;;;;12.30;100.00;98777.72;5016990;28;20088;-75
2023/10/21 06:58:13;;;;;;;4.85;4.15;;;;;;;12.31;100.00;98784.63;5018231;28;20033;-76
2023/10/21 07:00:38;;;;;;;4.75;4.10;;;;;;;12.33;100.00;98793.22;5017811;28;20375;-76
2023/10/21 07:03:05;;;;;;;7.60;4.45;;;;;;;12.33;100.00;98798.47;5018291;28;20045;-76
2023/10/21 07:05:31;;;;;;;4.28;3.97;;;;;;;12.35;100.00;98798.34;5017697;28;20037;-76
2023/10/21 07:07:56;;;;;;;9.15;5.22;;;;;;;12.34;100.00;98808.00;5017621;28;20037;-76
2023/10/21 07:10:23;;;;;;;6.40;5.07;;;;;;;12.35;100.00;98812.31;5017209;28;20046;-76
2023/10/21 07:12:48;;;;;;;10.00;6.22;;;;;;;12.35;100.00;98809.69;5017175;28;20321;-76
2023/10/21 07:15:14;;;;;;;9.43;5.65;;;;;;;12.35;100.00;98822.81;5018039;28;20053;-76
2023/10/21 07:17:39;;;;;;;14.90;5.82;;;;;;;12.33;100.00;98827.31;5017715;28;20100;-75
2023/10/21 07:20:05;;;;;;;6.78;6.00;;;;;;;12.35;100.00;98830.69;5015399;28;20625;-76
2023/10/21 07:22:31;;;;;;;8.82;5.65;;;;;;;12.35;100.00;98822.81;5017355;28;20026;-76
2023/10/21 07:24:57;;;;;;;9.50;6.20;;;;;;;12.36;100.00;98834.97;5017349;28;20120;-76
2023/10/21 07:27:24;;;;;;;9.20;5.47;;;;;;;12.38;100.00;98834.84;5017999;28;20348;-76
2023/10/21 07:29:49;;;;;;;8.02;5.40;;;;;;;12.39;100.00;98841.78;5015525;28;20049;-76
2023/10/21 07:32:15;;;;;;;13.75;5.78;;;;;;;12.41;100.00;98837.25;5011240;28;20022;-76
2023/10/21 07:34:41;;;;;;;7.65;5.72;;;;;;;12.41;100.00;98851.19;5013415;28;20068;-76
2023/10/21 07:37:06;;;;;;;9.43;5.68;;;;;;;12.41;100.00;98850.38;5017640;28;20121;-76
2023/10/21 07:39:31;;;;;;;6.55;4.57;;;;;;;12.42;100.00;98854.63;5013439;28;20037;-75
2023/10/21 07:41:57;;;;;;;9.77;4.90;;;;;;;12.43;100.00;98865.03;4997662;28;20372;-75
2023/10/21 07:44:23;;;;;;;6.75;4.25;;;;;;;12.44;100.00;98863.22;5013782;28;20105;-75
2023/10/21 07:46:50;;;;;;;9.60;4.90;;;;;;;12.43;100.00;98864.19;5015562;28;20096;-75
2023/10/21 07:49:16;;;;;;;7.10;4.63;;;;;;;12.45;100.00;98865.72;5015841;28;20025;-75
2023/10/21 07:51:41;;;;;;;6.32;4.30;;;;;;;12.44;100.00;98874.59;5011776;28;20367;-75
2023/10/21 07:54:07;;;;;;;8.77;5.05;;;;;;;12.43;100.00;98883.41;5010766;28;20106;-76
2023/10/21 07:56:32;;;;;;;6.75;4.15;;;;;;;12.45;100.00;98893.78;4999843;28;20042;-76
2023/10/21 07:58:58;;;;;;;6.60;4.28;;;;;;;12.44;100.00;98882.47;5011968;28;20040;-75
2023/10/21 08:01:23;;;;;;;5.10;3.92;;;;;;;12.45;100.00;98893.78;5008096;28;20037;-75
2023/10/21 08:03:49;;;;;;;4.55;3.97;;;;;;;12.46;100.00;98895.44;4997724;28;20041;-75
2023/10/21 08:06:14;;;;;;;6.05;3.30;;;;;;;12.47;100.00;98897.13;5011791;28;20382;-75
2023/10/21 08:08:40;;;;;;;4.15;3.20;;;;;;;12.46;100.00;98906.78;5015778;28;20076;-75
2023/10/21 08:11:06;;;;;;;5.10;2.83;;;;;;;12.45;100.00;98920.03;5016352;28;20048;-76
2023/10/21 08:13:31;;;;;;;3.75;2.78;;;;;;;12.42;100.00;98915.84;5004470;28;20402;-75
2023/10/21 08:15:57;;;;;;;5.68;2.90;;;;;;;12.42;100.00;98930.78;5008393;28;20028;-75
2023/10/21 08:18:23;;;;;;;3.42;2.33;;;;;;;12.44;100.00;98932.34;5013409;28;20105;-76
2023/10/21 08:20:48;;;;;;;3.38;1.92;;;;;;;12.44;100.00;98934.97;5009928;28;20030;-75
2023/10/21 08:23:15;;;;;;;16.02;3.97;;;;;;;12.39;100.00;98942.34;5000176;28;20034;-76
2023/10/21 08:25:40;;;;;;;3.35;1.80;;;;;;;12.42;100.00;98949.16;5004475;28;20037;-75
2023/10/21 08:28:07;;;;;;;4.57;1.75;;;;;;;12.42;100.00;98947.34;5001315;28;20034;-76
2023/10/21 08:30:32;;;;;;;2.75;1.63;;;;;;;12.44;100.00;98955.09;5004670;28;20263;-76
2023/10/21 08:32:58;;;;;;;2.50;1.63;;;;;;;12.42;100.00;98962.28;5016409;28;20345;-75
2023/10/21 08:35:23;;;;;;;8.43;1.38;;;;;;;12.43;100.00;98963.94;5011564;28;20430;-75
2023/10/21 08:37:49;;;;;;;2.05;1.08;;;;;;;12.43;100.00;98961.34;5011224;28;20136;-75
2023/10/21 08:40:15;;;;;;;3.15;1.27;;;;;;;12.40;100.00;98961.56;5010895;28;20042;-75
2023/10/21 08:42:41;;;;;;;4.65;1.65;;;;;;;12.37;100.00;98972.28;5004004;28;20026;-75
2023/10/21 08:45:09;;;;;;;2.45;1.40;;;;;;;12.38;100.00;98972.19;5007227;28;20049;-75
2023/10/21 08:47:35;;;;;;;5.07;1.48;;;;;;;12.38;100.00;98969.56;5012936;28;20034;-76
2023/10/21 08:50:03;;;;;;;3.50;1.17;;;;;;;12.38;100.00;98979.22;5014634;28;20044;-75
2023/10/21 08:52:29;;;;;;;4.78;1.40;;;;;;;12.35;100.00;98989.94;5001626;28;20030;-75
2023/10/21 08:54:54;;;;;;;4.90;1.20;;;;;;;12.37;100.00;98988.03;4998284;28;20041;-75
2023/10/21 08:57:19;;;;;;;2.28;1.10;;;;;;;12.34;100.00;98991.75;5015073;28;20048;-75
2023/10/21 08:59:44;;;;;;;2.10;1.10;;;;;;;12.35;100.00;98993.44;5012491;28;20037;-75
2023/10/21 09:02:10;;;;;;;3.72;1.30;;;;;;;12.35;100.00;99003.06;5013727;28;20286;-75
2023/10/21 09:04:35;;;;;;;2.00;1.20;;;;;;;12.35;100.00;99001.31;4995341;28;20063;-75
2023/10/21 09:07:01;;;;;;;1.10;1.02;;;;;;;12.35;100.00;99011.81;5013121;28;20362;-75
2023/10/21 09:09:27;;;;;;;1.30;0.95;;;;;;;12.35;100.00;99024.94;5009082;28;20038;-74
2023/10/21 09:12:02;;;;;;;1.48;0.93;;;;;;;12.35;100.00;99024.06;5001278;28;20046;-76
2023/10/21 09:14:29;;;;;;;2.88;1.00;;;;;;;12.31;100.00;99012.97;5009378;28;20045;-74
2023/10/21 09:16:56;;;;;;;1.40;1.13;;;;;;;12.28;100.00;99029.81;5011759;28;20041;-75
2023/10/21 09:19:26;;;;;;;1.42;1.00;;;;;;;12.28;100.00;99029.81;5009994;28;20362;-75
2023/10/21 09:21:51;;;;;;;2.22;1.10;;;;;;;12.31;100.00;99033.16;5009495;28;20042;-75
2023/10/21 09:24:24;;;;;;;1.85;0.95;;;;;;;12.34;100.00;99027.66;5010389;28;20217;-75
2023/10/21 09:26:50;;;;;;;6.50;1.02;;;;;;;12.36;100.00;99042.34;5007832;28;20396;-75
2023/10/21 09:29:20;;;;;;;1.10;0.80;;;;;;;12.39;100.00;99043.91;5011810;28;20077;-75
2023/10/21 09:31:53;;;;;;;2.28;1.00;;;;;;;12.42;100.00;99047.09;5011448;28;20111;-75
2023/10/21 09:34:37;;;;;;;1.45;1.08;;;;;;;12.43;100.00;99042.72;5009345;28;20037;-75
2023/10/21 09:37:04;;;;;;;3.08;1.05;;;;;;;12.43;100.00;99038.28;5010323;28;20038;-75
2023/10/21 09:39:36;;;;;;;4.40;1.00;;;;;;;12.45;100.00;99053.94;5008251;28;20421;-75
2023/10/21 09:42:03;;;;;;;3.40;0.80;;;;;;;12.42;100.00;99049.72;5009523;28;20030;-75
2023/10/21 09:44:31;;;;;;;1.33;0.57;;;;;;;12.51;100.00;99056.06;5011755;28;20427;-74
2023/10/21 09:47:00;;;;;;;2.67;0.80;;;;;;;12.54;100.00;99062.91;5011183;28;20329;-75
2023/10/21 09:49:27;;;;;;;3.60;0.75;;;;;;;12.60;100.00;99065.03;5010621;28;20026;-74
2023/10/21 09:52:14;;;;;;;2.90;1.10;;;;;;;12.63;100.00;99073.50;5012114;28;20018;-74
2023/10/21 09:54:52;;;;;;;4.35;0.90;;;;;;;12.62;100.00;99076.25;5012341;28;20044;-74
2023/10/21 09:57:19;;;;;;;3.60;0.88;;;;;;;12.64;100.00;99074.34;5011474;28;20041;-74
2023/10/21 09:59:46;;;;;;;5.10;0.90;;;;;;;12.62;100.00;99078.88;5012413;28;20057;-74
2023/10/21 10:02:12;;;;;;;2.50;0.70;;;;;;;12.62;100.00;99076.25;5013154;28;20112;-74
2023/10/21 10:04:38;;;;;;;2.00;0.90;;;;;;;12.64;100.00;99082.22;5009912;28;20049;-74
2023/10/21 10:07:07;;;;;;;4.70;1.10;;;;;;;12.65;100.00;99076.84;5009801;28;20288;-74
2023/10/21 10:09:36;;;;;;;9.93;0.80;;;;;;;12.65;100.00;99091.78;5010863;28;20092;-74
2023/10/21 10:12:05;;;;;;;1.48;0.70;;;;;;;12.65;100.00;99092.59;5011698;28;20034;-74
2023/10/21 10:14:33;;;;;;;1.25;0.45;;;;;;;12.68;100.00;99107.31;5005712;28;20045;-74
2023/10/21 10:16:59;;;;;;;6.90;1.20;;;;;;;12.67;100.00;99100.38;5007120;28;20041;-74
2023/10/21 10:19:37;;;;;;;1.60;0.70;;;;;;;12.61;100.00;99099.06;5012212;28;20571;-74
2023/10/21 10:22:36;;;;;;;3.45;0.47;;;;;;;12.60;100.00;99107.88;5013798;28;20053;-74
2023/10/21 10:25:10;;;;;;;1.13;0.57;;;;;;;12.61;100.00;99104.31;5002749;28;20120;-74
2023/10/21 10:27:40;;;;;;;2.00;0.80;;;;;;;12.61;100.00;99106.09;5013482;28;20042;-74
2023/10/21 10:30:37;;;;;;;6.13;0.70;;;;;;;12.59;100.00;99111.47;5014553;28;20034;-74
2023/10/21 10:33:08;;;;;;;2.00;0.60;;;;;;;12.61;100.00;99119.25;5006090;28;20061;-74
2023/10/21 10:35:41;;;;;;;8.02;1.20;;;;;;;12.60;100.00;99118.38;5003757;28;20045;-74
2023/10/21 10:38:25;;;;;;;2.25;0.90;;;;;;;12.62;100.00;99128.78;5014482;28;20447;-74
2023/10/21 10:41:11;;;;;;;1.42;0.80;;;;;;;12.59;100.00;99119.34;4994794;28;20026;-74
2023/10/21 10:43:43;;;;;;;3.97;1.17;;;;;;;12.58;100.00;99129.97;4998699;28;20265;-74
2023/10/21 10:46:10;;;;;;;3.50;0.80;;;;;;;12.56;100.00;99135.34;5013554;28;20017;-74
2023/10/21 10:48:35;;;;;;;4.10;1.10;;;;;;;12.53;100.00;99132.09;5010048;28;20034;-74
2023/10/21 10:51:10;;;;;;;3.88;0.80;;;;;;;12.52;100.00;99136.53;5008372;28;20034;-74
2023/10/21 10:53:36;;;;;;;10.50;1.60;;;;;;;12.46;100.00;99143.09;5013196;28;20038;-74
2023/10/21 10:56:02;;;;;;;4.35;0.80;;;;;;;12.44;100.00;99137.13;5009779;28;20164;-74
2023/10/21 10:58:27;;;;;;;3.67;1.52;;;;;;;12.48;100.00;99130.66;5008891;28;20033;-74
2023/10/21 11:00:53;;;;;;;6.50;1.13;;;;;;;12.49;100.00;99131.50;5010427;28;20026;-74
2023/10/21 11:03:31;;;;;;;2.97;0.80;;;;;;;12.54;100.00;99134.63;5012936;28;20041;-74
2023/10/21 11:05:57;;;;;;;5.73;1.10;;;;;;;12.57;100.00;99141.41;5011016;28;20102;-74
2023/10/21 11:08:24;;;;;;;6.75;0.90;;;;;;;12.60;100.00;99128.06;5008970;28;20393;-74
2023/10/21 11:10:54;;;;;;;6.03;0.90;;;;;;;12.59;100.00;99142.16;5007208;28;20033;-74
2023/10/21 11:13:22;;;;;;;13.13;2.38;;;;;;;12.60;100.00;99146.44;5012885;28;20122;-74
2023/10/21 11:15:51;;;;;;;6.90;1.58;;;;;;;12.60;100.00;99142.00;5009537;28;20093;-74
2023/10/21 11:18:18;;;;;;;7.65;1.45;;;;;;;12.65;100.00;99145.13;5012114;28;20345;-74
2023/10/21 11:20:50;;;;;;;6.72;0.98;;;;;;;12.71;100.00;99140.38;5006848;28;20139;-74
2023/10/21 11:23:18;;;;;;;3.97;1.00;;;;;;;12.74;100.00;99143.59;5006139;28;20042;-74